sensor_id;sensor_type;location;lat;lon;timestamp;temperature;humidity
14511;DHT22;7341;50.930;4.038;2022-12-29T00:00:07;11.40;99.90
14511;DHT22;7341;50.930;4.038;2022-12-29T00:02:41;11.40;99.90
14511;DHT22;7341;50.930;4.038;2022-12-29T00:05:12;11.40;99.90
14511;DHT22;7341;50.930;4.038;2022-12-29T00:08:13;11.40;99.90
14511;DHT22;7341;50.930;4.038;2022-12-29T00:10:40;11.40;99.90
14511;DHT22;7341;50.930;4.038;2022-12-29T00:13:42;11.50;99.90
14511;DHT22;7341;50.930;4.038;2022-12-29T00:16:57;11.60;99.90
14511;DHT22;7341;50.930;4.038;2022-12-29T00:19:28;11.60;99.90
14511;DHT22;7341;50.930;4.038;2022-12-29T00:22:15;11.70;99.90
14511;DHT22;7341;50.930;4.038;2022-12-29T00:25:26;11.70;99.90
14511;DHT22;7341;50.930;4.038;2022-12-29T00:28:27;11.70;99.90
14511;DHT22;7341;50.930;4.038;2022-12-29T00:31:33;11.80;99.90
14511;DHT22;7341;50.930;4.038;2022-12-29T00:34:47;11.80;99.90
14511;DHT22;7341;50.930;4.038;2022-12-29T00:37:34;11.80;99.90
14511;DHT22;7341;50.930;4.038;2022-12-29T00:40:50;11.90;99.90
14511;DHT22;7341;50.930;4.038;2022-12-29T00:43:55;11.90;99.90
14511;DHT22;7341;50.930;4.038;2022-12-29T00:46:32;11.90;99.90
14511;DHT22;7341;50.930;4.038;2022-12-29T00:49:09;11.90;99.90
14511;DHT22;7341;50.930;4.038;2022-12-29T00:57:43;11.90;99.90
14511;DHT22;7341;50.930;4.038;2022-12-29T01:00:11;11.90;99.90
14511;DHT22;7341;50.930;4.038;2022-12-29T01:02:43;11.90;99.90
14511;DHT22;7341;50.930;4.038;2022-12-29T01:05:16;12.00;99.90
14511;DHT22;7341;50.930;4.038;2022-12-29T01:07:47;12.00;99.90
14511;DHT22;7341;50.930;4.038;2022-12-29T01:10:18;11.90;99.90
14511;DHT22;7341;50.930;4.038;2022-12-29T01:12:49;12.00;99.90
14511;DHT22;7341;50.930;4.038;2022-12-29T01:15:38;11.90;99.90
14511;DHT22;7341;50.930;4.038;2022-12-29T01:18:47;11.80;99.90
14511;DHT22;7341;50.930;4.038;2022-12-29T01:21:33;11.70;99.90
14511;DHT22;7341;50.930;4.038;2022-12-29T01:24:14;11.50;99.90
14511;DHT22;7341;50.930;4.038;2022-12-29T01:26:47;11.50;99.90
14511;DHT22;7341;50.930;4.038;2022-12-29T01:39:45;11.50;99.90
14511;DHT22;7341;50.930;4.038;2022-12-29T01:42:36;11.50;99.90
14511;DHT22;7341;50.930;4.038;2022-12-29T01:48:39;11.50;99.90
14511;DHT22;7341;50.930;4.038;2022-12-29T01:54:33;11.40;99.90
14511;DHT22;7341;50.930;4.038;2022-12-29T01:57:17;11.40;99.90
14511;DHT22;7341;50.930;4.038;2022-12-29T01:59:54;11.40;99.90
14511;DHT22;7341;50.930;4.038;2022-12-29T02:02:42;11.40;99.90
14511;DHT22;7341;50.930;4.038;2022-12-29T02:05:38;11.20;99.90
14511;DHT22;7341;50.930;4.038;2022-12-29T02:08:19;11.20;99.90
14511;DHT22;7341;50.930;4.038;2022-12-29T02:10:49;11.20;99.90
14511;DHT22;7341;50.930;4.038;2022-12-29T02:13:33;11.10;99.90
14511;DHT22;7341;50.930;4.038;2022-12-29T02:19:52;11.10;99.90
14511;DHT22;7341;50.930;4.038;2022-12-29T02:23:03;11.10;99.90
14511;DHT22;7341;50.930;4.038;2022-12-29T02:26:16;11.20;99.90
14511;DHT22;7341;50.930;4.038;2022-12-29T02:39:04;10.90;99.90
14511;DHT22;7341;50.930;4.038;2022-12-29T02:45:29;10.90;99.90
14511;DHT22;7341;50.930;4.038;2022-12-29T02:49:04;10.80;99.90
14511;DHT22;7341;50.930;4.038;2022-12-29T02:52:06;10.80;99.90
14511;DHT22;7341;50.930;4.038;2022-12-29T02:59:08;10.80;99.90
14511;DHT22;7341;50.930;4.038;2022-12-29T03:02:07;10.70;99.90
14511;DHT22;7341;50.930;4.038;2022-12-29T03:08:44;10.80;99.90
14511;DHT22;7341;50.930;4.038;2022-12-29T03:12:07;10.70;99.90
14511;DHT22;7341;50.930;4.038;2022-12-29T03:18:59;10.70;99.90
14511;DHT22;7341;50.930;4.038;2022-12-29T03:22:01;10.70;99.90
14511;DHT22;7341;50.930;4.038;2022-12-29T03:24:59;10.70;99.90
14511;DHT22;7341;50.930;4.038;2022-12-29T03:31:17;10.70;99.90
14511;DHT22;7341;50.930;4.038;2022-12-29T03:34:20;10.70;99.90
14511;DHT22;7341;50.930;4.038;2022-12-29T03:37:00;10.70;99.90
14511;DHT22;7341;50.930;4.038;2022-12-29T03:46:37;10.70;99.90
14511;DHT22;7341;50.930;4.038;2022-12-29T03:49:10;10.70;99.90
14511;DHT22;7341;50.930;4.038;2022-12-29T03:51:43;10.70;99.90
14511;DHT22;7341;50.930;4.038;2022-12-29T03:54:20;10.70;99.90
14511;DHT22;7341;50.930;4.038;2022-12-29T03:56:53;10.70;99.90
14511;DHT22;7341;50.930;4.038;2022-12-29T03:59:23;10.70;99.90
14511;DHT22;7341;50.930;4.038;2022-12-29T04:01:53;10.70;99.90
14511;DHT22;7341;50.930;4.038;2022-12-29T04:04:23;10.70;99.90
14511;DHT22;7341;50.930;4.038;2022-12-29T04:07:03;10.60;99.90
14511;DHT22;7341;50.930;4.038;2022-12-29T04:09:36;10.70;99.90
14511;DHT22;7341;50.930;4.038;2022-12-29T04:12:05;10.70;99.90
14511;DHT22;7341;50.930;4.038;2022-12-29T04:17:34;10.60;99.90
14511;DHT22;7341;50.930;4.038;2022-12-29T04:23:17;10.60;99.90
14511;DHT22;7341;50.930;4.038;2022-12-29T04:26:01;10.60;99.90
14511;DHT22;7341;50.930;4.038;2022-12-29T04:28:59;10.70;99.90
14511;DHT22;7341;50.930;4.038;2022-12-29T04:31:39;10.70;99.90
14511;DHT22;7341;50.930;4.038;2022-12-29T04:34:10;10.70;99.90
14511;DHT22;7341;50.930;4.038;2022-12-29T04:36:48;10.70;99.90
14511;DHT22;7341;50.930;4.038;2022-12-29T04:39:35;10.70;99.90
14511;DHT22;7341;50.930;4.038;2022-12-29T04:42:05;10.80;99.90
14511;DHT22;7341;50.930;4.038;2022-12-29T04:44:42;10.80;99.90
14511;DHT22;7341;50.930;4.038;2022-12-29T04:47:42;10.80;99.90
14511;DHT22;7341;50.930;4.038;2022-12-29T04:53:53;10.60;99.90
14511;DHT22;7341;50.930;4.038;2022-12-29T04:56:42;10.70;99.90
14511;DHT22;7341;50.930;4.038;2022-12-29T04:59:32;10.70;99.90
14511;DHT22;7341;50.930;4.038;2022-12-29T05:04:51;10.80;99.90
14511;DHT22;7341;50.930;4.038;2022-12-29T05:07:46;10.80;99.90
14511;DHT22;7341;50.930;4.038;2022-12-29T05:10:26;10.80;99.90
14511;DHT22;7341;50.930;4.038;2022-12-29T05:13:14;10.80;99.90
14511;DHT22;7341;50.930;4.038;2022-12-29T05:16:08;10.80;99.90
14511;DHT22;7341;50.930;4.038;2022-12-29T05:18:43;10.80;99.90
14511;DHT22;7341;50.930;4.038;2022-12-29T05:21:25;10.90;99.90
14511;DHT22;7341;50.930;4.038;2022-12-29T05:24:25;11.00;99.90
14511;DHT22;7341;50.930;4.038;2022-12-29T05:27:10;10.90;99.90
14511;DHT22;7341;50.930;4.038;2022-12-29T05:30:22;10.80;99.90
14511;DHT22;7341;50.930;4.038;2022-12-29T05:33:20;10.70;99.90
14511;DHT22;7341;50.930;4.038;2022-12-29T05:36:10;10.70;99.90
14511;DHT22;7341;50.930;4.038;2022-12-29T05:38:50;10.80;99.90
14511;DHT22;7341;50.930;4.038;2022-12-29T05:41:20;10.80;99.90
14511;DHT22;7341;50.930;4.038;2022-12-29T05:43:51;10.80;99.90
14511;DHT22;7341;50.930;4.038;2022-12-29T05:46:46;10.90;99.90
14511;DHT22;7341;50.930;4.038;2022-12-29T05:52:40;10.70;99.90
14511;DHT22;7341;50.930;4.038;2022-12-29T05:55:28;10.70;99.90
14511;DHT22;7341;50.930;4.038;2022-12-29T05:58:07;10.80;99.90
14511;DHT22;7341;50.930;4.038;2022-12-29T06:00:51;10.80;99.90
14511;DHT22;7341;50.930;4.038;2022-12-29T06:03:59;10.80;99.90
14511;DHT22;7341;50.930;4.038;2022-12-29T06:06:27;10.70;99.90
14511;DHT22;7341;50.930;4.038;2022-12-29T06:09:09;10.80;99.90
14511;DHT22;7341;50.930;4.038;2022-12-29T06:12:11;10.80;99.90
14511;DHT22;7341;50.930;4.038;2022-12-29T06:14:55;10.90;99.90
14511;DHT22;7341;50.930;4.038;2022-12-29T06:17:40;10.80;99.90
14511;DHT22;7341;50.930;4.038;2022-12-29T06:20:33;10.80;99.90
14511;DHT22;7341;50.930;4.038;2022-12-29T06:23:22;10.90;99.90
14511;DHT22;7341;50.930;4.038;2022-12-29T06:29:28;10.90;99.90
14511;DHT22;7341;50.930;4.038;2022-12-29T06:35:53;10.90;99.90
14511;DHT22;7341;50.930;4.038;2022-12-29T06:38:45;10.80;99.90
14511;DHT22;7341;50.930;4.038;2022-12-29T06:41:18;10.90;99.90
14511;DHT22;7341;50.930;4.038;2022-12-29T06:44:06;10.90;99.90
14511;DHT22;7341;50.930;4.038;2022-12-29T06:46:47;10.90;99.90
14511;DHT22;7341;50.930;4.038;2022-12-29T06:49:16;10.90;99.90
14511;DHT22;7341;50.930;4.038;2022-12-29T06:51:46;11.00;99.90
14511;DHT22;7341;50.930;4.038;2022-12-29T06:54:35;11.00;99.90
14511;DHT22;7341;50.930;4.038;2022-12-29T07:00:03;10.90;99.90
14511;DHT22;7341;50.930;4.038;2022-12-29T07:02:40;10.90;99.90
14511;DHT22;7341;50.930;4.038;2022-12-29T07:05:24;10.90;99.90
14511;DHT22;7341;50.930;4.038;2022-12-29T07:08:43;11.00;99.90
14511;DHT22;7341;50.930;4.038;2022-12-29T07:11:58;11.00;99.90
14511;DHT22;7341;50.930;4.038;2022-12-29T07:14:44;11.00;99.90
14511;DHT22;7341;50.930;4.038;2022-12-29T07:18:04;11.00;99.90
14511;DHT22;7341;50.930;4.038;2022-12-29T07:20:53;11.00;99.90
14511;DHT22;7341;50.930;4.038;2022-12-29T07:23:37;11.00;99.90
14511;DHT22;7341;50.930;4.038;2022-12-29T07:26:19;11.00;99.90
14511;DHT22;7341;50.930;4.038;2022-12-29T07:28:54;10.90;99.90
14511;DHT22;7341;50.930;4.038;2022-12-29T07:31:27;10.90;99.90
14511;DHT22;7341;50.930;4.038;2022-12-29T07:34:01;11.00;99.90
14511;DHT22;7341;50.930;4.038;2022-12-29T07:36:30;11.00;99.90
14511;DHT22;7341;50.930;4.038;2022-12-29T07:38:57;11.10;99.90
14511;DHT22;7341;50.930;4.038;2022-12-29T07:41:29;11.10;99.90
14511;DHT22;7341;50.930;4.038;2022-12-29T07:44:12;11.10;99.90
14511;DHT22;7341;50.930;4.038;2022-12-29T07:46:47;11.10;99.90
14511;DHT22;7341;50.930;4.038;2022-12-29T07:49:24;11.00;99.90
14511;DHT22;7341;50.930;4.038;2022-12-29T07:52:06;11.10;99.90
14511;DHT22;7341;50.930;4.038;2022-12-29T07:54:51;11.10;99.90
14511;DHT22;7341;50.930;4.038;2022-12-29T07:57:30;11.10;99.90
14511;DHT22;7341;50.930;4.038;2022-12-29T08:00:04;11.10;99.90
14511;DHT22;7341;50.930;4.038;2022-12-29T08:02:57;11.10;99.90
14511;DHT22;7341;50.930;4.038;2022-12-29T08:05:45;11.10;99.90
14511;DHT22;7341;50.930;4.038;2022-12-29T08:08:13;11.10;99.90
14511;DHT22;7341;50.930;4.038;2022-12-29T08:10:41;11.10;99.90
14511;DHT22;7341;50.930;4.038;2022-12-29T08:13:31;11.10;99.90
14511;DHT22;7341;50.930;4.038;2022-12-29T08:15:58;11.00;99.90
14511;DHT22;7341;50.930;4.038;2022-12-29T08:18:27;11.00;99.90
14511;DHT22;7341;50.930;4.038;2022-12-29T08:21:30;11.00;99.90
14511;DHT22;7341;50.930;4.038;2022-12-29T08:24:34;11.10;99.90
14511;DHT22;7341;50.930;4.038;2022-12-29T08:27:40;11.00;99.90
14511;DHT22;7341;50.930;4.038;2022-12-29T08:30:42;11.00;99.90
14511;DHT22;7341;50.930;4.038;2022-12-29T08:33:17;11.00;99.90
14511;DHT22;7341;50.930;4.038;2022-12-29T08:39:01;10.90;99.90
14511;DHT22;7341;50.930;4.038;2022-12-29T08:42:00;10.90;99.90
14511;DHT22;7341;50.930;4.038;2022-12-29T08:45:24;10.70;99.90
14511;DHT22;7341;50.930;4.038;2022-12-29T08:51:37;10.50;99.90
14511;DHT22;7341;50.930;4.038;2022-12-29T08:54:22;10.50;99.90
14511;DHT22;7341;50.930;4.038;2022-12-29T08:57:05;10.40;99.90
14511;DHT22;7341;50.930;4.038;2022-12-29T08:59:37;10.30;99.90
14511;DHT22;7341;50.930;4.038;2022-12-29T09:02:15;10.20;99.90
14511;DHT22;7341;50.930;4.038;2022-12-29T09:08:13;10.20;99.90
14511;DHT22;7341;50.930;4.038;2022-12-29T09:11:18;10.00;99.90
14511;DHT22;7341;50.930;4.038;2022-12-29T09:13:47;9.90;99.90
14511;DHT22;7341;50.930;4.038;2022-12-29T09:16:16;10.00;99.90
14511;DHT22;7341;50.930;4.038;2022-12-29T09:18:44;9.90;99.90
14511;DHT22;7341;50.930;4.038;2022-12-29T09:21:14;10.00;99.90
14511;DHT22;7341;50.930;4.038;2022-12-29T09:23:50;10.00;99.90
14511;DHT22;7341;50.930;4.038;2022-12-29T09:26:32;10.10;99.90
14511;DHT22;7341;50.930;4.038;2022-12-29T09:29:05;10.00;99.90
14511;DHT22;7341;50.930;4.038;2022-12-29T09:31:58;10.10;99.90
14511;DHT22;7341;50.930;4.038;2022-12-29T09:34:58;10.00;99.90
14511;DHT22;7341;50.930;4.038;2022-12-29T09:37:26;9.90;99.90
14511;DHT22;7341;50.930;4.038;2022-12-29T09:40:18;9.80;99.90
14511;DHT22;7341;50.930;4.038;2022-12-29T09:46:00;9.70;99.90
14511;DHT22;7341;50.930;4.038;2022-12-29T09:48:36;9.80;99.90
14511;DHT22;7341;50.930;4.038;2022-12-29T09:51:09;9.80;99.90
14511;DHT22;7341;50.930;4.038;2022-12-29T09:53:41;9.90;99.90
14511;DHT22;7341;50.930;4.038;2022-12-29T09:56:17;10.00;99.90
14511;DHT22;7341;50.930;4.038;2022-12-29T09:58:56;10.10;99.90
14511;DHT22;7341;50.930;4.038;2022-12-29T10:01:30;10.20;99.90
14511;DHT22;7341;50.930;4.038;2022-12-29T10:04:00;10.30;99.90
14511;DHT22;7341;50.930;4.038;2022-12-29T10:06:37;10.30;99.90
14511;DHT22;7341;50.930;4.038;2022-12-29T10:09:14;10.30;99.90
14511;DHT22;7341;50.930;4.038;2022-12-29T10:12:01;10.40;99.90
14511;DHT22;7341;50.930;4.038;2022-12-29T10:14:44;10.40;99.90
14511;DHT22;7341;50.930;4.038;2022-12-29T10:17:34;10.50;99.90
14511;DHT22;7341;50.930;4.038;2022-12-29T10:20:27;10.40;99.90
14511;DHT22;7341;50.930;4.038;2022-12-29T10:23:27;10.60;99.90
14511;DHT22;7341;50.930;4.038;2022-12-29T10:26:14;10.70;99.90
14511;DHT22;7341;50.930;4.038;2022-12-29T10:29:02;10.80;99.90
14511;DHT22;7341;50.930;4.038;2022-12-29T10:32:17;10.80;99.90
14511;DHT22;7341;50.930;4.038;2022-12-29T10:34:53;10.90;99.90
14511;DHT22;7341;50.930;4.038;2022-12-29T10:43:33;11.00;99.90
14511;DHT22;7341;50.930;4.038;2022-12-29T10:46:27;11.10;99.90
14511;DHT22;7341;50.930;4.038;2022-12-29T10:49:05;11.10;99.90
14511;DHT22;7341;50.930;4.038;2022-12-29T10:51:48;11.10;99.90
14511;DHT22;7341;50.930;4.038;2022-12-29T10:54:26;11.10;99.90
14511;DHT22;7341;50.930;4.038;2022-12-29T10:57:26;11.10;99.90
14511;DHT22;7341;50.930;4.038;2022-12-29T10:59:55;11.10;99.90
14511;DHT22;7341;50.930;4.038;2022-12-29T11:05:45;11.10;99.90
14511;DHT22;7341;50.930;4.038;2022-12-29T11:08:17;11.00;99.90
14511;DHT22;7341;50.930;4.038;2022-12-29T11:10:58;11.00;99.90
14511;DHT22;7341;50.930;4.038;2022-12-29T11:13:28;11.10;99.90
14511;DHT22;7341;50.930;4.038;2022-12-29T11:16:14;11.00;99.90
14511;DHT22;7341;50.930;4.038;2022-12-29T11:19:00;11.00;99.90
14511;DHT22;7341;50.930;4.038;2022-12-29T11:21:41;11.10;99.90
14511;DHT22;7341;50.930;4.038;2022-12-29T11:24:30;11.10;99.90
14511;DHT22;7341;50.930;4.038;2022-12-29T11:27:17;11.20;99.90
14511;DHT22;7341;50.930;4.038;2022-12-29T11:29:46;11.30;99.90
14511;DHT22;7341;50.930;4.038;2022-12-29T11:32:21;11.20;99.90
14511;DHT22;7341;50.930;4.038;2022-12-29T11:34:51;11.20;99.90
14511;DHT22;7341;50.930;4.038;2022-12-29T11:37:27;11.30;99.90
14511;DHT22;7341;50.930;4.038;2022-12-29T11:39:59;11.20;99.90
14511;DHT22;7341;50.930;4.038;2022-12-29T11:42:34;11.20;99.90
14511;DHT22;7341;50.930;4.038;2022-12-29T11:45:05;11.10;99.90
14511;DHT22;7341;50.930;4.038;2022-12-29T11:47:33;11.10;99.90
14511;DHT22;7341;50.930;4.038;2022-12-29T11:50:04;11.10;99.90
14511;DHT22;7341;50.930;4.038;2022-12-29T11:52:35;11.20;99.90
14511;DHT22;7341;50.930;4.038;2022-12-29T11:55:20;11.40;99.90
14511;DHT22;7341;50.930;4.038;2022-12-29T11:57:48;11.50;99.90
14511;DHT22;7341;50.930;4.038;2022-12-29T12:00:22;11.40;99.90
14511;DHT22;7341;50.930;4.038;2022-12-29T12:02:57;11.40;99.90
14511;DHT22;7341;50.930;4.038;2022-12-29T12:05:35;11.30;99.90
14511;DHT22;7341;50.930;4.038;2022-12-29T12:08:11;11.30;99.90
14511;DHT22;7341;50.930;4.038;2022-12-29T12:10:43;11.30;99.90
14511;DHT22;7341;50.930;4.038;2022-12-29T12:13:25;11.30;99.90
14511;DHT22;7341;50.930;4.038;2022-12-29T12:15:59;11.10;99.90
14511;DHT22;7341;50.930;4.038;2022-12-29T12:18:40;11.00;99.90
14511;DHT22;7341;50.930;4.038;2022-12-29T12:21:20;11.00;99.90
14511;DHT22;7341;50.930;4.038;2022-12-29T12:26:58;11.20;99.90
14511;DHT22;7341;50.930;4.038;2022-12-29T12:29:33;11.30;99.90
14511;DHT22;7341;50.930;4.038;2022-12-29T12:32:12;11.30;99.90
14511;DHT22;7341;50.930;4.038;2022-12-29T12:34:43;11.30;99.90
14511;DHT22;7341;50.930;4.038;2022-12-29T12:40:28;11.00;99.90
14511;DHT22;7341;50.930;4.038;2022-12-29T12:43:12;10.90;99.90
14511;DHT22;7341;50.930;4.038;2022-12-29T12:45:52;10.70;99.90
14511;DHT22;7341;50.930;4.038;2022-12-29T12:48:44;10.60;99.90
14511;DHT22;7341;50.930;4.038;2022-12-29T12:51:27;10.70;99.90
14511;DHT22;7341;50.930;4.038;2022-12-29T12:54:09;10.70;99.90
14511;DHT22;7341;50.930;4.038;2022-12-29T12:57:04;10.90;99.90
14511;DHT22;7341;50.930;4.038;2022-12-29T12:59:49;10.90;99.90
14511;DHT22;7341;50.930;4.038;2022-12-29T13:02:34;10.90;99.90
14511;DHT22;7341;50.930;4.038;2022-12-29T13:05:21;11.00;99.90
14511;DHT22;7341;50.930;4.038;2022-12-29T13:07:58;11.00;99.90
14511;DHT22;7341;50.930;4.038;2022-12-29T13:10:36;11.00;99.90
14511;DHT22;7341;50.930;4.038;2022-12-29T13:13:28;11.10;99.90
14511;DHT22;7341;50.930;4.038;2022-12-29T13:16:02;11.00;99.90
14511;DHT22;7341;50.930;4.038;2022-12-29T13:18:35;10.80;99.90
14511;DHT22;7341;50.930;4.038;2022-12-29T13:21:18;10.80;99.90
14511;DHT22;7341;50.930;4.038;2022-12-29T13:23:53;10.70;99.90
14511;DHT22;7341;50.930;4.038;2022-12-29T13:26:28;10.80;99.90
14511;DHT22;7341;50.930;4.038;2022-12-29T13:29:04;10.70;99.90
14511;DHT22;7341;50.930;4.038;2022-12-29T13:31:42;10.70;99.90
14511;DHT22;7341;50.930;4.038;2022-12-29T13:34:15;10.80;99.90
14511;DHT22;7341;50.930;4.038;2022-12-29T13:36:51;10.80;99.90
14511;DHT22;7341;50.930;4.038;2022-12-29T13:39:24;10.80;99.90
14511;DHT22;7341;50.930;4.038;2022-12-29T13:41:54;11.00;99.90
14511;DHT22;7341;50.930;4.038;2022-12-29T13:44:25;10.70;99.90
14511;DHT22;7341;50.930;4.038;2022-12-29T13:46:56;10.70;99.90
14511;DHT22;7341;50.930;4.038;2022-12-29T13:49:24;10.60;99.90
14511;DHT22;7341;50.930;4.038;2022-12-29T13:51:58;10.20;99.90
14511;DHT22;7341;50.930;4.038;2022-12-29T13:54:37;9.80;99.90
14511;DHT22;7341;50.930;4.038;2022-12-29T13:57:26;9.30;99.90
14511;DHT22;7341;50.930;4.038;2022-12-29T14:00:02;9.00;99.90
14511;DHT22;7341;50.930;4.038;2022-12-29T14:02:42;8.80;99.90
14511;DHT22;7341;50.930;4.038;2022-12-29T14:05:28;8.70;99.90
14511;DHT22;7341;50.930;4.038;2022-12-29T14:08:01;8.50;99.90
14511;DHT22;7341;50.930;4.038;2022-12-29T14:10:33;8.50;99.90
14511;DHT22;7341;50.930;4.038;2022-12-29T14:13:09;8.50;99.90
14511;DHT22;7341;50.930;4.038;2022-12-29T14:15:56;8.40;99.90
14511;DHT22;7341;50.930;4.038;2022-12-29T14:18:33;8.40;99.90
14511;DHT22;7341;50.930;4.038;2022-12-29T14:21:08;8.40;99.90
14511;DHT22;7341;50.930;4.038;2022-12-29T14:23:47;8.40;99.90
14511;DHT22;7341;50.930;4.038;2022-12-29T14:26:39;8.40;99.90
14511;DHT22;7341;50.930;4.038;2022-12-29T14:32:36;8.50;99.90
14511;DHT22;7341;50.930;4.038;2022-12-29T14:35:40;8.30;99.90
14511;DHT22;7341;50.930;4.038;2022-12-29T14:38:30;8.40;99.90
14511;DHT22;7341;50.930;4.038;2022-12-29T14:41:32;8.50;99.90
14511;DHT22;7341;50.930;4.038;2022-12-29T14:44:19;8.60;99.90
14511;DHT22;7341;50.930;4.038;2022-12-29T14:46:56;8.60;99.90
14511;DHT22;7341;50.930;4.038;2022-12-29T14:49:31;8.60;99.90
14511;DHT22;7341;50.930;4.038;2022-12-29T14:52:12;8.60;99.90
14511;DHT22;7341;50.930;4.038;2022-12-29T14:57:35;8.70;99.90
14511;DHT22;7341;50.930;4.038;2022-12-29T15:00:12;8.70;99.90
14511;DHT22;7341;50.930;4.038;2022-12-29T15:02:46;8.90;99.90
14511;DHT22;7341;50.930;4.038;2022-12-29T15:05:26;8.90;99.90
14511;DHT22;7341;50.930;4.038;2022-12-29T15:07:57;8.90;99.90
14511;DHT22;7341;50.930;4.038;2022-12-29T15:10:30;9.00;99.90
14511;DHT22;7341;50.930;4.038;2022-12-29T15:13:04;8.90;99.90
14511;DHT22;7341;50.930;4.038;2022-12-29T15:15:37;9.00;99.90
14511;DHT22;7341;50.930;4.038;2022-12-29T15:18:24;8.90;99.90
14511;DHT22;7341;50.930;4.038;2022-12-29T15:20:57;9.00;99.90
14511;DHT22;7341;50.930;4.038;2022-12-29T15:23:25;9.00;99.90
14511;DHT22;7341;50.930;4.038;2022-12-29T15:25:55;9.00;99.90
14511;DHT22;7341;50.930;4.038;2022-12-29T15:28:25;9.00;99.90
14511;DHT22;7341;50.930;4.038;2022-12-29T15:30:55;9.00;99.90
14511;DHT22;7341;50.930;4.038;2022-12-29T15:33:24;9.00;99.90
14511;DHT22;7341;50.930;4.038;2022-12-29T15:36:02;8.90;99.90
14511;DHT22;7341;50.930;4.038;2022-12-29T15:38:30;8.80;99.90
14511;DHT22;7341;50.930;4.038;2022-12-29T15:41:02;8.70;99.90
14511;DHT22;7341;50.930;4.038;2022-12-29T15:43:41;8.60;99.90
14511;DHT22;7341;50.930;4.038;2022-12-29T15:46:11;8.60;99.90
14511;DHT22;7341;50.930;4.038;2022-12-29T15:48:39;8.60;99.90
14511;DHT22;7341;50.930;4.038;2022-12-29T15:51:17;8.70;99.90
14511;DHT22;7341;50.930;4.038;2022-12-29T15:53:47;8.60;99.90
14511;DHT22;7341;50.930;4.038;2022-12-29T15:56:17;8.60;99.90
14511;DHT22;7341;50.930;4.038;2022-12-29T15:58:46;8.60;99.90
14511;DHT22;7341;50.930;4.038;2022-12-29T16:01:24;8.60;99.90
14511;DHT22;7341;50.930;4.038;2022-12-29T16:03:54;8.60;99.90
14511;DHT22;7341;50.930;4.038;2022-12-29T16:06:39;8.60;99.90
14511;DHT22;7341;50.930;4.038;2022-12-29T16:09:15;8.60;99.90
14511;DHT22;7341;50.930;4.038;2022-12-29T16:11:45;8.60;99.90
14511;DHT22;7341;50.930;4.038;2022-12-29T16:14:15;8.70;99.90
14511;DHT22;7341;50.930;4.038;2022-12-29T16:16:46;8.70;99.90
14511;DHT22;7341;50.930;4.038;2022-12-29T16:19:19;8.70;99.90
14511;DHT22;7341;50.930;4.038;2022-12-29T16:21:50;8.80;99.90
14511;DHT22;7341;50.930;4.038;2022-12-29T16:24:23;8.60;99.90
14511;DHT22;7341;50.930;4.038;2022-12-29T16:26:56;8.60;99.90
14511;DHT22;7341;50.930;4.038;2022-12-29T16:29:26;8.60;99.90
14511;DHT22;7341;50.930;4.038;2022-12-29T16:31:56;8.70;99.90
14511;DHT22;7341;50.930;4.038;2022-12-29T16:34:30;8.60;99.90
14511;DHT22;7341;50.930;4.038;2022-12-29T16:37:01;8.60;99.90
14511;DHT22;7341;50.930;4.038;2022-12-29T16:39:35;8.70;99.90
14511;DHT22;7341;50.930;4.038;2022-12-29T16:42:35;8.70;99.90
14511;DHT22;7341;50.930;4.038;2022-12-29T16:45:58;8.60;99.90
14511;DHT22;7341;50.930;4.038;2022-12-29T16:48:33;8.60;99.90
14511;DHT22;7341;50.930;4.038;2022-12-29T16:51:02;8.60;99.90
14511;DHT22;7341;50.930;4.038;2022-12-29T16:53:33;8.60;99.90
14511;DHT22;7341;50.930;4.038;2022-12-29T16:56:05;8.60;99.90
14511;DHT22;7341;50.930;4.038;2022-12-29T16:58:34;8.60;99.90
14511;DHT22;7341;50.930;4.038;2022-12-29T17:01:06;8.60;99.90
14511;DHT22;7341;50.930;4.038;2022-12-29T17:03:46;8.60;99.90
14511;DHT22;7341;50.930;4.038;2022-12-29T17:06:18;8.60;99.90
14511;DHT22;7341;50.930;4.038;2022-12-29T17:08:48;8.60;99.90
14511;DHT22;7341;50.930;4.038;2022-12-29T17:11:23;8.50;99.90
14511;DHT22;7341;50.930;4.038;2022-12-29T17:14:35;8.50;99.90
14511;DHT22;7341;50.930;4.038;2022-12-29T17:17:05;8.50;99.90
14511;DHT22;7341;50.930;4.038;2022-12-29T17:19:35;8.50;99.90
14511;DHT22;7341;50.930;4.038;2022-12-29T17:22:04;8.50;99.90
14511;DHT22;7341;50.930;4.038;2022-12-29T17:24:37;8.50;99.90
14511;DHT22;7341;50.930;4.038;2022-12-29T17:27:06;8.50;99.90
14511;DHT22;7341;50.930;4.038;2022-12-29T17:29:36;8.50;99.90
14511;DHT22;7341;50.930;4.038;2022-12-29T17:32:05;8.50;99.90
14511;DHT22;7341;50.930;4.038;2022-12-29T17:34:32;8.50;99.90
14511;DHT22;7341;50.930;4.038;2022-12-29T17:37:00;8.50;99.90
14511;DHT22;7341;50.930;4.038;2022-12-29T17:39:28;8.50;99.90
14511;DHT22;7341;50.930;4.038;2022-12-29T17:41:58;8.60;99.90
14511;DHT22;7341;50.930;4.038;2022-12-29T17:44:25;8.70;99.90
14511;DHT22;7341;50.930;4.038;2022-12-29T17:46:52;8.70;99.90
14511;DHT22;7341;50.930;4.038;2022-12-29T17:49:19;8.70;99.90
14511;DHT22;7341;50.930;4.038;2022-12-29T17:51:46;8.70;99.90
14511;DHT22;7341;50.930;4.038;2022-12-29T17:54:19;8.60;99.90
14511;DHT22;7341;50.930;4.038;2022-12-29T17:56:47;8.60;99.90
14511;DHT22;7341;50.930;4.038;2022-12-29T17:59:16;8.60;99.90
14511;DHT22;7341;50.930;4.038;2022-12-29T18:01:45;8.60;99.90
14511;DHT22;7341;50.930;4.038;2022-12-29T18:04:14;8.60;99.90
14511;DHT22;7341;50.930;4.038;2022-12-29T18:06:43;8.50;99.90
14511;DHT22;7341;50.930;4.038;2022-12-29T18:09:11;8.50;99.90
14511;DHT22;7341;50.930;4.038;2022-12-29T18:11:43;8.60;99.90
14511;DHT22;7341;50.930;4.038;2022-12-29T18:14:11;8.50;99.90
14511;DHT22;7341;50.930;4.038;2022-12-29T18:16:40;8.50;99.90
14511;DHT22;7341;50.930;4.038;2022-12-29T18:19:07;8.50;99.90
14511;DHT22;7341;50.930;4.038;2022-12-29T18:21:35;8.50;99.90
14511;DHT22;7341;50.930;4.038;2022-12-29T18:24:04;8.50;99.90
14511;DHT22;7341;50.930;4.038;2022-12-29T18:26:31;8.50;99.90
14511;DHT22;7341;50.930;4.038;2022-12-29T18:29:00;8.60;99.90
14511;DHT22;7341;50.930;4.038;2022-12-29T18:31:29;8.60;99.90
14511;DHT22;7341;50.930;4.038;2022-12-29T18:33:59;8.60;99.90
14511;DHT22;7341;50.930;4.038;2022-12-29T18:36:27;8.50;99.90
14511;DHT22;7341;50.930;4.038;2022-12-29T18:38:55;8.60;99.90
14511;DHT22;7341;50.930;4.038;2022-12-29T18:41:23;8.60;99.90
14511;DHT22;7341;50.930;4.038;2022-12-29T18:43:51;8.60;99.90
14511;DHT22;7341;50.930;4.038;2022-12-29T18:46:18;8.50;99.90
14511;DHT22;7341;50.930;4.038;2022-12-29T18:48:45;8.50;99.90
14511;DHT22;7341;50.930;4.038;2022-12-29T18:51:18;8.50;99.90
14511;DHT22;7341;50.930;4.038;2022-12-29T18:53:49;8.50;99.90
14511;DHT22;7341;50.930;4.038;2022-12-29T18:56:18;8.50;99.90
14511;DHT22;7341;50.930;4.038;2022-12-29T18:58:47;8.60;99.90
14511;DHT22;7341;50.930;4.038;2022-12-29T19:01:18;8.60;99.90
14511;DHT22;7341;50.930;4.038;2022-12-29T19:03:45;8.50;99.90
14511;DHT22;7341;50.930;4.038;2022-12-29T19:06:12;8.50;99.90
14511;DHT22;7341;50.930;4.038;2022-12-29T19:08:41;8.50;99.90
14511;DHT22;7341;50.930;4.038;2022-12-29T19:11:08;8.40;99.90
14511;DHT22;7341;50.930;4.038;2022-12-29T19:13:34;8.40;99.90
14511;DHT22;7341;50.930;4.038;2022-12-29T19:16:02;8.40;99.90